Time;durP1;ratioP1;P1;durP2;ratioP2;P2;SDS_P1;SDS_P2;PMS_P1;PMS_P2;Temp;Humidity;BMP_temperature;BMP_pressure;BME280_temperature;BME280_humidity;BME280_pressure;Samples;Min_cycle;Max_cycle;Signal;HPM_P1;HPM_P2
2022/11/28 00:02:06;;;;;;;1.67;0.80;;;;;;;9.89;53.99;96966.66;4870707;28;20800;-73
2022/11/28 00:04:31;;;;;;;2.25;0.90;;;;;;;9.84;55.07;96966.63;4871840;28;20284;-74
2022/11/28 00:06:57;;;;;;;1.95;1.17;;;;;;;9.86;54.80;96967.94;4879519;28;20199;-74
2022/11/28 00:09:23;;;;;;;2.75;0.90;;;;;;;9.85;54.60;96966.38;4861486;28;20161;-74
2022/11/28 00:11:48;;;;;;;2.03;1.08;;;;;;;9.81;54.35;96965.28;4851720;29;20203;-74
2022/11/28 00:14:15;;;;;;;1.80;0.90;;;;;;;9.89;55.18;96959.66;4854192;29;20706;-74
2022/11/28 00:16:40;;;;;;;1.70;0.70;;;;;;;9.89;54.14;96958.88;4852951;29;20441;-74
2022/11/28 00:19:06;;;;;;;2.15;0.90;;;;;;;9.89;54.82;96954.44;4873265;28;20278;-74
2022/11/28 00:21:32;;;;;;;1.55;0.80;;;;;;;9.93;53.23;96954.75;4847311;29;20319;-73
2022/11/28 00:23:59;;;;;;;1.70;1.17;;;;;;;9.96;50.95;96950.88;4858156;29;20293;-74
2022/11/28 00:26:35;;;;;;;1.42;1.00;;;;;;;10.10;52.41;96949.44;4871914;28;20195;-74
2022/11/28 00:29:02;;;;;;;1.95;0.77;;;;;;;10.09;49.72;96940.06;4862132;29;20690;-74
2022/11/28 00:31:33;;;;;;;1.83;1.00;;;;;;;10.35;51.04;96948.09;4879185;28;20242;-74
2022/11/28 00:34:00;;;;;;;2.25;1.30;;;;;;;10.32;51.39;96944.19;4861972;28;20199;-74
2022/11/28 00:36:26;;;;;;;1.98;0.93;;;;;;;10.34;51.38;96941.34;4883304;28;20885;-73
2022/11/28 00:38:52;;;;;;;1.70;1.00;;;;;;;10.41;50.97;96937.50;4863543;29;20190;-74
2022/11/28 00:41:20;;;;;;;2.45;1.33;;;;;;;10.38;51.57;96934.59;4859895;29;20298;-74
2022/11/28 00:43:46;;;;;;;3.33;1.20;;;;;;;10.27;51.69;96938.91;4857293;29;20302;-74
2022/11/28 00:46:12;;;;;;;1.33;0.85;;;;;;;10.26;51.90;96927.75;4868353;29;20164;-73
2022/11/28 00:48:38;;;;;;;1.05;0.82;;;;;;;10.24;52.44;96929.00;4883492;28;20176;-74
2022/11/28 00:51:09;;;;;;;1.13;0.90;;;;;;;10.34;51.22;96928.34;4872471;28;20646;-73
2022/11/28 00:53:34;;;;;;;1.50;1.10;;;;;;;10.26;52.20;96927.75;4872826;28;20275;-74
2022/11/28 00:56:00;;;;;;;1.63;1.10;;;;;;;10.28;51.94;96933.47;4882286;28;20672;-74
2022/11/28 00:58:25;;;;;;;1.77;0.88;;;;;;;10.20;52.60;96936.53;4863658;28;20293;-74
2022/11/28 01:00:50;;;;;;;2.90;1.20;;;;;;;10.27;52.21;96938.91;4877686;28;20563;-74
2022/11/28 01:03:16;;;;;;;2.65;1.02;;;;;;;10.21;52.83;96940.69;4856675;29;20224;-74
2022/11/28 01:05:42;;;;;;;1.63;0.88;;;;;;;10.25;52.74;96933.97;4873047;28;20219;-74
2022/11/28 01:08:08;;;;;;;3.38;1.45;;;;;;;10.13;52.97;96925.53;4851170;29;20492;-74
2022/11/28 01:10:38;;;;;;;2.80;1.05;;;;;;;10.16;51.77;96916.44;4878355;28;20299;-73
2022/11/28 01:13:03;;;;;;;2.85;1.10;;;;;;;10.10;51.60;96918.22;4858224;28;20612;-73
2022/11/28 01:15:29;;;;;;;2.40;1.05;;;;;;;10.09;52.01;96917.44;4872240;28;20195;-73
2022/11/28 01:17:54;;;;;;;2.13;1.10;;;;;;;10.19;52.47;96911.53;4857719;29;20276;-74
2022/11/28 01:20:19;;;;;;;2.67;1.25;;;;;;;10.19;52.55;96911.53;4872950;28;20117;-74
2022/11/28 01:22:45;;;;;;;2.65;1.65;;;;;;;10.19;52.69;96905.53;4848810;29;20701;-73
2022/11/28 01:25:10;;;;;;;1.65;1.25;;;;;;;10.17;51.37;96905.78;4863139;28;20616;-73
2022/11/28 01:27:35;;;;;;;2.38;1.08;;;;;;;10.18;51.82;96899.56;4853748;29;20191;-73
2022/11/28 01:30:01;;;;;;;2.08;1.83;;;;;;;10.13;50.97;96899.53;4868640;28;20259;-74
2022/11/28 01:32:26;;;;;;;2.65;1.63;;;;;;;10.34;50.94;96897.09;4849276;29;20252;-74
2022/11/28 01:34:51;;;;;;;2.92;1.52;;;;;;;10.42;50.59;96883.66;4853602;29;20330;-74
2022/11/28 01:37:17;;;;;;;2.03;1.45;;;;;;;10.53;50.51;96879.28;4852117;29;20219;-74
2022/11/28 01:39:42;;;;;;;3.35;1.25;;;;;;;10.46;50.62;96877.66;4848180;29;20189;-74
2022/11/28 01:42:16;;;;;;;1.95;1.02;;;;;;;10.64;50.45;96881.69;4851286;29;20223;-73
2022/11/28 01:44:42;;;;;;;2.07;1.47;;;;;;;10.42;49.87;96868.81;4864717;28;20281;-73
2022/11/28 01:47:07;;;;;;;2.58;1.48;;;;;;;10.54;50.36;96873.81;4879177;28;20934;-74
2022/11/28 01:49:34;;;;;;;1.75;1.20;;;;;;;10.59;50.32;96867.84;4875504;28;20280;-73
2022/11/28 01:52:04;;;;;;;3.45;1.17;;;;;;;10.66;50.59;96874.41;4882557;28;20270;-74
2022/11/28 01:54:30;;;;;;;1.77;1.20;;;;;;;10.58;49.83;96867.06;4865814;29;20210;-74
2022/11/28 01:56:59;;;;;;;1.98;1.48;;;;;;;10.68;50.33;96861.91;4879667;28;20260;-73
2022/11/28 01:59:26;;;;;;;2.10;0.98;;;;;;;10.72;50.72;96872.63;4849564;29;20646;-73
2022/11/28 02:01:52;;;;;;;2.20;1.30;;;;;;;10.64;51.31;96868.69;4820550;29;20173;-74
2022/11/28 02:04:17;;;;;;;2.30;1.40;;;;;;;10.60;52.33;96870.19;4869304;28;20397;-74
2022/11/28 02:06:43;;;;;;;3.17;1.40;;;;;;;10.49;52.44;96861.56;4851199;29;20208;-74
2022/11/28 02:09:11;;;;;;;2.78;1.50;;;;;;;10.45;52.00;96854.47;4871985;28;20279;-74
2022/11/28 02:11:46;;;;;;;1.95;1.23;;;;;;;10.57;51.79;96849.88;4855411;29;20314;-74
2022/11/28 02:14:33;;;;;;;2.30;1.30;;;;;;;10.61;50.74;96848.34;4873029;28;20662;-74
2022/11/28 02:17:17;;;;;;;2.53;1.30;;;;;;;10.62;51.41;96844.69;4855610;29;20256;-74
2022/11/28 02:20:04;;;;;;;2.05;1.30;;;;;;;10.66;51.02;96842.41;4855087;29;20199;-74
2022/11/28 02:23:00;;;;;;;3.38;1.50;;;;;;;10.76;50.33;96846.84;4869464;28;20661;-74
2022/11/28 02:26:03;;;;;;;2.05;1.30;;;;;;;10.82;50.73;96845.84;4863472;28;20285;-74
2022/11/28 02:28:49;;;;;;;2.58;1.30;;;;;;;10.75;51.53;96850.50;4855858;29;20621;-74
2022/11/28 02:31:33;;;;;;;2.28;1.23;;;;;;;10.60;51.49;96844.16;4855936;29;20188;-74
2022/11/28 02:34:03;;;;;;;3.90;1.33;;;;;;;10.71;52.39;96839.00;4846307;29;20208;-74
2022/11/28 02:36:35;;;;;;;2.53;1.52;;;;;;;10.62;52.44;96830.91;4869025;28;20087;-74
2022/11/28 02:39:11;;;;;;;3.53;1.77;;;;;;;10.54;52.92;96829.56;4853960;29;20216;-74
2022/11/28 02:41:53;;;;;;;2.22;1.58;;;;;;;10.57;53.01;96829.03;4857842;29;20282;-74
2022/11/28 02:44:41;;;;;;;3.25;1.35;;;;;;;10.53;52.33;96835.81;4835946;29;20670;-74
2022/11/28 02:47:24;;;;;;;2.03;1.30;;;;;;;10.52;52.16;96825.63;4854853;29;20214;-74
2022/11/28 02:50:06;;;;;;;2.67;1.48;;;;;;;10.54;51.85;96826.97;4862361;29;20644;-74
2022/11/28 02:52:46;;;;;;;1.70;1.10;;;;;;;10.59;51.79;96821.78;4860647;29;20261;-74
2022/11/28 02:55:12;;;;;;;3.25;1.60;;;;;;;10.45;52.63;96818.84;4861382;29;20105;-74
2022/11/28 02:57:46;;;;;;;4.25;1.85;;;;;;;10.57;51.71;96813.41;4872467;28;20283;-74
2022/11/28 03:00:24;;;;;;;2.20;1.60;;;;;;;10.65;51.92;96819.97;4880657;28;20118;-74
2022/11/28 03:02:58;;;;;;;1.83;1.40;;;;;;;10.52;52.68;96816.03;4859644;28;20153;-76
2022/11/28 03:05:33;;;;;;;2.85;1.48;;;;;;;10.55;52.96;96812.91;4856913;29;20169;-74
2022/11/28 03:08:24;;;;;;;4.28;1.70;;;;;;;10.60;51.76;96817.34;4862593;29;20186;-74
2022/11/28 03:10:57;;;;;;;2.95;1.60;;;;;;;10.59;52.12;96810.56;4881008;28;20268;-74
2022/11/28 03:13:44;;;;;;;4.10;1.58;;;;;;;10.57;52.55;96802.22;4876841;28;20046;-74
2022/11/28 03:16:30;;;;;;;1.90;1.25;;;;;;;10.59;52.68;96803.56;4871236;28;20191;-74
2022/11/28 03:19:17;;;;;;;3.30;1.65;;;;;;;10.61;52.26;96811.13;4877348;28;20285;-74
2022/11/28 03:21:51;;;;;;;1.85;1.55;;;;;;;10.47;53.80;96803.00;4865590;28;20436;-74
2022/11/28 03:24:46;;;;;;;2.28;1.75;;;;;;;10.50;52.60;96812.88;4852763;28;20197;-74
2022/11/28 03:27:23;;;;;;;2.13;1.70;;;;;;;10.52;52.41;96810.03;4848718;29;20269;-74
2022/11/28 03:29:51;;;;;;;3.17;2.03;;;;;;;10.43;52.57;96814.91;4876671;28;20286;-74
2022/11/28 03:32:21;;;;;;;2.97;1.70;;;;;;;10.45;54.15;96815.44;4857437;28;20274;-75
2022/11/28 03:34:51;;;;;;;3.28;1.70;;;;;;;10.37;53.59;96808.13;4864798;29;20212;-74
2022/11/28 03:37:26;;;;;;;2.83;1.80;;;;;;;10.45;53.21;96808.44;4878327;28;20194;-74
2022/11/28 03:39:54;;;;;;;2.78;1.90;;;;;;;10.49;52.71;96806.88;4863800;28;20693;-74
2022/11/28 03:42:21;;;;;;;4.18;2.00;;;;;;;10.57;51.93;96787.38;4877460;28;20216;-74
2022/11/28 03:45:10;;;;;;;4.07;2.10;;;;;;;10.60;52.65;96792.09;4854544;29;20654;-74
2022/11/28 03:47:41;;;;;;;5.22;2.10;;;;;;;10.64;52.63;96793.19;4872984;28;20579;-74
2022/11/28 03:50:13;;;;;;;3.33;2.17;;;;;;;10.66;52.93;96785.88;4883069;28;20198;-74
2022/11/28 03:52:43;;;;;;;3.53;1.95;;;;;;;10.73;52.56;96784.84;4878493;28;20324;-74
2022/11/28 03:55:18;;;;;;;3.90;2.30;;;;;;;10.72;52.64;96785.91;4868057;28;20211;-74
2022/11/28 03:57:59;;;;;;;4.70;2.30;;;;;;;10.70;52.62;96790.59;4845165;29;20615;-74
2022/11/28 04:00:24;;;;;;;5.55;2.60;;;;;;;10.78;52.03;96787.47;4871738;28;20218;-74
2022/11/28 04:02:56;;;;;;;4.95;2.50;;;;;;;10.76;52.96;96787.75;4872839;28;20185;-74
2022/11/28 04:05:37;;;;;;;4.28;2.83;;;;;;;10.90;52.57;96787.25;4875659;28;20611;-74
2022/11/28 04:08:29;;;;;;;5.13;3.00;;;;;;;10.98;51.98;96782.34;4868793;28;20287;-74
2022/11/28 04:11:17;;;;;;;4.40;2.83;;;;;;;10.83;53.08;96780.50;4864251;28;20689;-75
2022/11/28 04:14:09;;;;;;;4.78;2.83;;;;;;;10.71;53.40;96789.53;4863912;28;20279;-74
2022/11/28 04:16:52;;;;;;;5.10;3.00;;;;;;;10.93;52.37;96779.72;4853195;29;20705;-74
2022/11/28 04:19:29;;;;;;;3.63;2.47;;;;;;;10.80;53.79;96781.00;4874528;28;20211;-74
2022/11/28 04:22:04;;;;;;;4.55;3.22;;;;;;;10.91;53.53;96776.59;4862406;29;20193;-74
2022/11/28 04:24:34;;;;;;;4.47;3.28;;;;;;;10.97;53.53;96778.19;4876058;28;20228;-74
2022/11/28 04:27:01;;;;;;;4.15;2.97;;;;;;;10.86;53.86;96773.97;4884491;28;20645;-75
2022/11/28 04:29:32;;;;;;;4.47;2.97;;;;;;;10.93;53.90;96779.72;4875403;28;20309;-74
2022/11/28 04:31:58;;;;;;;5.13;3.10;;;;;;;10.55;54.26;96784.25;4832574;29;20301;-74
2022/11/28 04:34:25;;;;;;;4.90;2.90;;;;;;;10.72;54.21;96765.84;4872913;28;20165;-74
2022/11/28 04:36:52;;;;;;;4.93;3.22;;;;;;;10.73;54.20;96771.84;4858080;29;20614;-74
2022/11/28 04:39:20;;;;;;;4.60;2.83;;;;;;;10.78;54.67;96769.25;4884161;28;20282;-74
2022/11/28 04:41:51;;;;;;;5.30;3.30;;;;;;;10.83;54.38;96766.66;4862201;28;20195;-74
2022/11/28 04:44:42;;;;;;;4.32;2.70;;;;;;;10.64;54.52;96761.94;4871870;28;20194;-74
2022/11/28 04:47:08;;;;;;;3.75;2.67;;;;;;;10.64;54.60;96759.31;4849056;29;20147;-74
2022/11/28 04:49:34;;;;;;;5.28;3.00;;;;;;;10.64;54.43;96756.72;4878672;28;20297;-74
2022/11/28 04:52:03;;;;;;;4.07;3.13;;;;;;;10.75;54.43;96767.19;4878040;28;20295;-75
2022/11/28 04:54:35;;;;;;;5.68;3.08;;;;;;;10.66;55.03;96765.06;4867924;28;20340;-74
2022/11/28 04:57:17;;;;;;;5.57;3.13;;;;;;;10.72;54.72;96758.03;4867503;29;20200;-74
2022/11/28 04:59:43;;;;;;;5.28;3.13;;;;;;;10.70;54.53;96765.34;4882676;28;20788;-74
2022/11/28 05:02:10;;;;;;;7.13;3.63;;;;;;;10.72;54.59;96762.47;4885025;28;20361;-74
2022/11/28 05:04:36;;;;;;;4.70;3.28;;;;;;;10.70;54.96;96759.34;4885139;28;20262;-74
2022/11/28 05:07:06;;;;;;;6.38;3.10;;;;;;;10.70;55.23;96759.34;4881695;28;20688;-74
2022/11/28 05:09:31;;;;;;;9.30;3.95;;;;;;;10.65;55.02;96758.28;4870038;28;20207;-74
2022/11/28 05:11:57;;;;;;;3.85;2.70;;;;;;;10.67;55.24;96755.41;4864473;28;20311;-74
2022/11/28 05:14:22;;;;;;;4.30;3.80;;;;;;;10.61;55.23;96752.03;4877718;28;20199;-74
2022/11/28 05:16:48;;;;;;;5.45;3.83;;;;;;;10.60;55.23;96755.66;4881458;28;20195;-74
2022/11/28 05:19:14;;;;;;;5.43;3.10;;;;;;;10.53;55.93;96754.34;4884708;28;20717;-74
2022/11/28 05:21:39;;;;;;;5.20;3.03;;;;;;;10.52;55.98;96763.16;4884771;28;20202;-74
2022/11/28 05:24:05;;;;;;;4.47;2.72;;;;;;;10.49;56.60;96761.88;4861805;28;20285;-74
2022/11/28 05:26:31;;;;;;;5.20;3.20;;;;;;;10.35;56.33;96764.16;4878332;28;20285;-74
2022/11/28 05:28:57;;;;;;;4.93;3.10;;;;;;;10.36;56.64;96762.31;4860331;29;20196;-75
2022/11/28 05:31:22;;;;;;;4.75;3.15;;;;;;;10.32;56.82;96758.66;4877754;28;20219;-74
2022/11/28 05:33:47;;;;;;;5.93;3.40;;;;;;;10.25;57.55;96758.84;4879381;28;20215;-74
2022/11/28 05:36:15;;;;;;;4.18;2.90;;;;;;;10.24;57.40;96752.84;4878449;28;20294;-74
2022/11/28 05:38:41;;;;;;;4.30;3.10;;;;;;;10.19;57.63;96755.41;4883847;28;20191;-74
2022/11/28 05:41:07;;;;;;;5.30;3.40;;;;;;;10.18;57.33;96764.28;4846031;29;20286;-74
2022/11/28 05:43:32;;;;;;;4.90;3.15;;;;;;;10.15;57.64;96758.81;4869787;28;20284;-74
2022/11/28 05:45:58;;;;;;;4.72;3.13;;;;;;;10.22;57.74;96767.16;4877870;28;20259;-74
2022/11/28 05:48:24;;;;;;;5.82;3.42;;;;;;;10.20;57.96;96764.81;4860931;29;20657;-74
2022/11/28 05:50:49;;;;;;;5.13;3.47;;;;;;;10.22;57.80;96760.13;4877163;28;20330;-74
2022/11/28 05:53:16;;;;;;;4.00;3.10;;;;;;;10.18;57.50;96761.69;4858468;29;20207;-74
2022/11/28 05:55:42;;;;;;;4.35;3.50;;;;;;;10.26;57.60;96771.63;4861894;28;20680;-74
2022/11/28 05:58:07;;;;;;;5.32;3.63;;;;;;;10.30;57.09;96764.09;4876675;28;20248;-74
2022/11/28 06:00:33;;;;;;;4.32;3.28;;;;;;;10.35;57.10;96761.53;4862828;28;20380;-74
2022/11/28 06:02:59;;;;;;;4.95;3.20;;;;;;;10.30;57.42;96764.88;4883196;28;20190;-74
2022/11/28 06:05:24;;;;;;;5.30;2.95;;;;;;;10.38;57.33;96773.25;4876536;28;20633;-74
2022/11/28 06:07:49;;;;;;;4.38;2.88;;;;;;;10.33;57.39;96771.41;4862183;29;20199;-74
2022/11/28 06:10:15;;;;;;;4.85;3.22;;;;;;;10.40;57.38;96768.56;4859580;28;20189;-74
2022/11/28 06:12:43;;;;;;;6.40;3.65;;;;;;;10.30;57.58;96769.28;4863925;29;20273;-74
2022/11/28 06:15:09;;;;;;;5.70;3.35;;;;;;;10.16;57.24;96770.75;4861660;29;20377;-74
2022/11/28 06:17:34;;;;;;;5.40;3.30;;;;;;;10.22;57.83;96762.72;4861190;28;20566;-74
2022/11/28 06:19:59;;;;;;;5.15;3.40;;;;;;;10.24;57.41;96768.47;4870866;28;20295;-74
2022/11/28 06:22:25;;;;;;;6.45;3.67;;;;;;;10.21;57.35;96769.00;4874184;28;20259;-75
2022/11/28 06:24:50;;;;;;;4.50;2.88;;;;;;;10.26;57.42;96774.22;4864517;28;20195;-74
2022/11/28 06:27:15;;;;;;;5.07;3.10;;;;;;;10.36;57.23;96781.31;4852355;29;20203;-74
2022/11/28 06:29:41;;;;;;;5.07;3.22;;;;;;;10.34;57.13;96772.19;4875697;28;20372;-74
2022/11/28 06:32:06;;;;;;;7.28;4.03;;;;;;;10.32;56.98;96776.88;4856368;29;20355;-74
2022/11/28 06:34:32;;;;;;;5.47;3.85;;;;;;;10.29;57.20;96776.28;4878212;28;20645;-74
2022/11/28 06:36:57;;;;;;;7.30;3.65;;;;;;;10.29;57.13;96778.13;4873720;28;20667;-74
2022/11/28 06:39:22;;;;;;;6.20;4.10;;;;;;;10.06;57.50;96779.28;4882055;28;20200;-74
2022/11/28 06:41:48;;;;;;;7.65;4.32;;;;;;;10.18;57.40;96782.50;4859495;28;20220;-74
2022/11/28 06:44:15;;;;;;;6.35;3.95;;;;;;;10.26;57.29;96776.81;4870972;28;20268;-74
2022/11/28 06:46:40;;;;;;;6.00;3.60;;;;;;;10.17;57.62;96772.34;4867303;28;20207;-74
2022/11/28 06:49:05;;;;;;;6.45;4.00;;;;;;;10.16;57.75;96776.75;4874008;28;20645;-75
2022/11/28 06:51:31;;;;;;;7.05;4.70;;;;;;;10.23;57.12;96777.31;4882652;28;20911;-74
2022/11/28 06:56:48;;;;;;;6.70;3.85;;;;;;;10.22;58.13;96782.78;4876172;28;20424;-74
2022/11/28 06:59:13;;;;;;;7.25;4.45;;;;;;;10.21;57.88;96784.59;4875281;28;20706;-74
2022/11/28 07:01:39;;;;;;;7.47;3.95;;;;;;;10.19;57.73;96788.47;4882746;28;20223;-74
2022/11/28 07:04:04;;;;;;;7.25;3.65;;;;;;;10.20;57.87;96792.66;4878621;28;20130;-74
2022/11/28 07:06:29;;;;;;;6.97;3.72;;;;;;;10.30;57.70;96793.50;4870047;28;20367;-75
2022/11/28 07:08:56;;;;;;;6.70;4.15;;;;;;;10.34;57.79;96790.41;4880706;28;20282;-74
2022/11/28 07:11:27;;;;;;;5.10;3.78;;;;;;;10.51;57.31;96788.41;4878831;28;20203;-74
2022/11/28 07:13:53;;;;;;;6.22;3.92;;;;;;;10.28;58.17;96779.94;4869501;28;20370;-74
2022/11/28 07:16:21;;;;;;;8.07;3.63;;;;;;;10.35;57.71;96784.16;4877299;28;20421;-74
2022/11/28 07:18:47;;;;;;;5.70;3.58;;;;;;;10.26;58.14;96782.03;4879235;28;20637;-75
2022/11/28 07:21:13;;;;;;;5.70;4.00;;;;;;;10.28;58.33;96789.56;4867411;29;20206;-74
2022/11/28 07:23:39;;;;;;;4.82;3.88;;;;;;;10.38;57.89;96792.25;4860823;28;20263;-74
2022/11/28 07:26:05;;;;;;;7.03;4.22;;;;;;;10.26;58.13;96791.63;4834072;29;20312;-75
2022/11/28 07:28:30;;;;;;;5.45;3.80;;;;;;;10.33;57.93;96797.41;4853844;28;20338;-74
2022/11/28 07:31:09;;;;;;;7.10;4.60;;;;;;;10.53;57.38;96790.78;4869123;28;20189;-74
2022/11/28 07:33:36;;;;;;;5.00;3.75;;;;;;;10.38;57.54;96801.88;4869731;28;20339;-75
2022/11/28 07:36:03;;;;;;;5.47;3.65;;;;;;;10.43;57.74;96796.69;4842684;28;20305;-74
2022/11/28 07:38:29;;;;;;;7.70;4.53;;;;;;;10.25;57.79;96803.88;4864480;29;20261;-74
2022/11/28 07:40:54;;;;;;;6.28;4.53;;;;;;;10.31;58.19;96799.47;4858357;28;20290;-74
2022/11/28 07:43:20;;;;;;;6.45;3.83;;;;;;;10.42;58.13;96801.13;4872942;28;20277;-74
2022/11/28 07:45:45;;;;;;;6.25;3.70;;;;;;;10.40;58.03;96794.59;4865651;28;20283;-74
2022/11/28 07:48:10;;;;;;;8.48;4.32;;;;;;;10.48;57.72;96802.72;4880229;28;20211;-74
2022/11/28 07:50:39;;;;;;;7.78;4.00;;;;;;;10.45;58.12;96805.84;4884685;28;20736;-74
2022/11/28 07:53:04;;;;;;;6.05;3.80;;;;;;;10.51;57.46;96808.47;4884505;28;20231;-74
2022/11/28 07:55:30;;;;;;;4.65;3.63;;;;;;;10.51;57.95;96808.47;4850728;29;20591;-75
2022/11/28 07:57:55;;;;;;;6.57;3.97;;;;;;;10.46;58.08;96806.63;4872037;28;20087;-74
2022/11/28 08:00:21;;;;;;;6.78;3.80;;;;;;;10.56;58.16;96809.28;4864235;29;20213;-74
2022/11/28 08:02:46;;;;;;;6.28;3.78;;;;;;;10.59;57.98;96805.38;4879038;28;20215;-74
2022/11/28 08:05:12;;;;;;;4.63;3.10;;;;;;;10.65;58.05;96807.75;4856945;28;20236;-74
2022/11/28 08:07:38;;;;;;;4.82;3.70;;;;;;;10.66;57.94;96800.72;4865639;29;20357;-74
2022/11/28 08:10:05;;;;;;;4.88;3.40;;;;;;;10.73;57.57;96805.69;4865086;28;20365;-74
2022/11/28 08:12:30;;;;;;;5.85;3.38;;;;;;;10.74;57.33;96805.44;4865209;28;20317;-74
2022/11/28 08:14:55;;;;;;;6.18;3.90;;;;;;;10.64;57.86;96818.41;4868279;28;20169;-74
2022/11/28 08:17:21;;;;;;;7.47;3.65;;;;;;;10.67;57.82;96803.06;4870933;28;20208;-74
2022/11/28 08:19:46;;;;;;;6.25;4.05;;;;;;;10.77;57.67;96801.56;4863845;28;20206;-75
2022/11/28 08:22:11;;;;;;;4.60;3.25;;;;;;;10.78;57.74;96800.50;4873554;28;20369;-74
2022/11/28 08:24:37;;;;;;;5.45;3.40;;;;;;;10.87;57.55;96801.59;4864186;29;20754;-74
2022/11/28 08:27:02;;;;;;;6.95;3.80;;;;;;;10.64;58.13;96808.78;4869715;28;20122;-74
2022/11/28 08:29:28;;;;;;;4.50;3.70;;;;;;;10.80;58.33;96816.69;4855701;29;20176;-74
2022/11/28 08:31:53;;;;;;;4.70;3.22;;;;;;;10.80;57.76;96817.44;4873451;28;20335;-74
2022/11/28 08:34:18;;;;;;;6.85;3.63;;;;;;;10.75;57.73;96814.06;4882364;28;20211;-74
2022/11/28 08:36:46;;;;;;;4.93;3.35;;;;;;;10.78;57.97;96816.94;4879441;28;20370;-74
2022/11/28 08:39:11;;;;;;;5.20;3.65;;;;;;;10.75;58.14;96814.06;4863406;28;20228;-74
2022/11/28 08:41:36;;;;;;;5.55;3.17;;;;;;;10.84;57.79;96817.72;4881661;28;20145;-74
2022/11/28 08:44:02;;;;;;;6.30;3.30;;;;;;;10.86;58.36;96810.44;4875435;28;20192;-75
2022/11/28 08:46:27;;;;;;;6.00;3.42;;;;;;;11.03;58.20;96811.00;4884702;28;20303;-74
2022/11/28 08:48:53;;;;;;;4.47;3.08;;;;;;;10.78;58.96;96808.31;4878129;28;20220;-74
2022/11/28 08:51:22;;;;;;;5.18;3.50;;;;;;;10.98;58.96;96807.63;4874631;28;20208;-75
2022/11/28 08:53:48;;;;;;;7.22;3.38;;;;;;;10.83;58.74;96803.94;4860077;28;20302;-74
2022/11/28 08:56:15;;;;;;;5.45;3.72;;;;;;;11.10;58.97;96810.78;4861760;29;20665;-75
2022/11/28 08:58:40;;;;;;;6.82;3.88;;;;;;;11.07;58.75;96803.50;4868362;28;20696;-74
2022/11/28 09:01:20;;;;;;;6.22;3.65;;;;;;;11.20;59.33;96817.84;4866143;28;20143;-74
2022/11/28 09:03:46;;;;;;;6.07;4.25;;;;;;;11.08;60.10;96819.91;4877846;28;20173;-75
2022/11/28 09:06:12;;;;;;;4.95;3.55;;;;;;;11.05;60.40;96818.56;4864280;29;20282;-74
2022/11/28 09:08:38;;;;;;;5.25;3.45;;;;;;;11.15;60.29;96823.03;4853269;28;20255;-75
2022/11/28 09:11:08;;;;;;;6.38;3.70;;;;;;;11.14;60.24;96824.06;4884511;28;20282;-75
2022/11/28 09:13:34;;;;;;;6.50;3.92;;;;;;;10.96;61.19;96812.31;4884703;28;20173;-74
2022/11/28 09:15:59;;;;;;;6.43;4.07;;;;;;;10.84;61.97;96818.50;4884929;28;20210;-74
2022/11/28 09:18:25;;;;;;;6.45;4.03;;;;;;;10.72;62.80;96828.34;4884422;28;20187;-74
2022/11/28 09:21:00;;;;;;;9.07;4.30;;;;;;;10.85;62.71;96819.31;4865267;28;20204;-74
2022/11/28 09:23:26;;;;;;;7.50;4.00;;;;;;;10.79;63.23;96822.91;4828861;29;20288;-74
2022/11/28 09:25:51;;;;;;;5.68;3.92;;;;;;;10.91;62.83;96833.13;4869257;29;20184;-75
2022/11/28 09:28:16;;;;;;;7.78;3.63;;;;;;;10.86;63.25;96834.69;4885153;28;20215;-75
2022/11/28 09:30:42;;;;;;;5.00;4.00;;;;;;;11.00;62.80;96834.19;4869957;28;20720;-75
2022/11/28 09:33:07;;;;;;;8.00;4.30;;;;;;;10.80;63.66;96837.50;4885112;28;20582;-75
2022/11/28 09:35:32;;;;;;;5.95;4.28;;;;;;;10.68;63.78;96835.88;4871094;28;20827;-74
2022/11/28 09:37:58;;;;;;;8.65;4.53;;;;;;;10.87;63.50;96828.41;4884543;28;20027;-75
2022/11/28 09:40:43;;;;;;;7.43;4.10;;;;;;;10.94;63.84;96833.41;4884356;28;20259;-75
2022/11/28 09:43:15;;;;;;;7.00;4.45;;;;;;;10.90;63.78;96828.94;4852762;29;20267;-75
2022/11/28 09:45:40;;;;;;;8.60;4.63;;;;;;;10.75;64.27;96829.69;4861045;29;20218;-75
2022/11/28 09:48:28;;;;;;;7.65;4.93;;;;;;;11.11;63.82;96827.22;4868791;29;20180;-76
2022/11/28 09:51:04;;;;;;;7.68;4.63;;;;;;;10.96;64.40;96826.09;4881863;28;20214;-75
2022/11/28 09:53:58;;;;;;;7.22;5.00;;;;;;;11.14;64.22;96821.47;4868289;28;20285;-75
2022/11/28 09:56:24;;;;;;;7.95;4.60;;;;;;;10.85;64.74;96819.31;4866900;28;20047;-76
2022/11/28 09:58:54;;;;;;;8.38;4.95;;;;;;;11.12;63.73;96818.34;4879523;28;20218;-75
2022/11/28 10:01:23;;;;;;;7.38;5.15;;;;;;;11.06;64.62;96814.94;4879202;28;20295;-74
2022/11/28 10:03:51;;;;;;;8.50;5.15;;;;;;;10.97;65.23;96809.44;4883991;28;20195;-75
2022/11/28 10:06:26;;;;;;;8.70;5.00;;;;;;;11.16;64.73;96803.78;4884547;28;20035;-75
2022/11/28 10:09:19;;;;;;;7.47;5.30;;;;;;;11.27;64.69;96802.75;4883849;28;20542;-75
2022/11/28 10:12:22;;;;;;;7.07;5.15;;;;;;;11.45;64.36;96809.31;4884125;28;20207;-75
2022/11/28 10:15:01;;;;;;;6.53;4.63;;;;;;;11.18;65.97;96812.88;4877785;28;20297;-75
2022/11/28 10:17:53;;;;;;;6.50;4.95;;;;;;;11.43;65.21;96809.56;4883947;28;20289;-75
2022/11/28 10:20:51;;;;;;;7.15;4.28;;;;;;;11.65;65.27;96808.53;4856404;29;20661;-75
2022/11/28 10:23:28;;;;;;;7.22;4.53;;;;;;;11.62;65.14;96806.47;4868750;28;20658;-75
2022/11/28 10:25:56;;;;;;;7.97;4.72;;;;;;;11.62;65.61;96807.22;4883225;28;20254;-75
2022/11/28 10:28:25;;;;;;;7.75;4.57;;;;;;;11.76;65.20;96801.50;4883179;28;20207;-76
2022/11/28 10:30:58;;;;;;;7.30;4.63;;;;;;;11.84;65.08;96802.81;4882929;28;20278;-76
2022/11/28 10:33:30;;;;;;;5.68;4.18;;;;;;;11.84;65.51;96797.59;4861338;29;20176;-75
2022/11/28 10:35:56;;;;;;;7.68;4.50;;;;;;;11.91;64.64;96793.72;4865891;29;20653;-76
2022/11/28 10:38:27;;;;;;;8.27;3.97;;;;;;;11.72;64.86;96793.44;4876749;28;20164;-76
2022/11/28 10:41:12;;;;;;;5.82;3.65;;;;;;;11.97;64.74;96797.88;4882301;28;20230;-75
2022/11/28 10:43:53;;;;;;;7.47;4.57;;;;;;;12.08;64.60;96790.84;4879858;28;20172;-76
2022/11/28 10:46:50;;;;;;;6.38;4.07;;;;;;;12.16;64.10;96792.13;4883183;28;20263;-75
2022/11/28 10:49:18;;;;;;;5.88;4.28;;;;;;;12.09;64.74;96795.00;4880341;28;20406;-75
2022/11/28 10:52:07;;;;;;;7.30;3.80;;;;;;;12.21;64.23;96791.34;4881789;28;20214;-76
2022/11/28 10:54:48;;;;;;;7.35;3.88;;;;;;;12.16;65.34;96789.50;4882130;28;20296;-76
2022/11/28 10:57:23;;;;;;;5.47;3.97;;;;;;;12.16;64.91;96790.28;4879293;28;20283;-75
2022/11/28 11:00:07;;;;;;;5.47;4.32;;;;;;;12.21;64.77;96786.88;4882780;28;20315;-76
2022/11/28 11:02:34;;;;;;;5.10;3.83;;;;;;;12.12;64.87;96781.41;4882694;28;20705;-75
2022/11/28 11:05:00;;;;;;;6.30;3.90;;;;;;;12.31;64.85;96788.69;4882775;28;20617;-76
2022/11/28 11:07:29;;;;;;;4.90;3.58;;;;;;;12.18;64.73;96787.41;4868523;28;20274;-76
2022/11/28 11:10:00;;;;;;;5.68;3.30;;;;;;;12.33;64.93;96794.44;4882444;28;20199;-75
2022/11/28 11:12:30;;;;;;;5.75;3.78;;;;;;;12.40;64.84;96794.94;4882904;28;20194;-76
2022/11/28 11:14:56;;;;;;;5.55;3.95;;;;;;;12.33;65.12;96790.00;4882649;28;20271;-76
2022/11/28 11:17:24;;;;;;;6.22;4.30;;;;;;;12.53;63.67;96796.22;4875886;28;20294;-75
2022/11/28 11:19:49;;;;;;;6.60;3.75;;;;;;;12.41;64.26;96793.91;4882434;28;20705;-76
2022/11/28 11:22:21;;;;;;;6.95;3.65;;;;;;;12.46;63.71;96793.88;4868556;28;20274;-76
2022/11/28 11:25:05;;;;;;;5.18;3.55;;;;;;;12.61;63.71;96784.44;4882717;28;20200;-76
2022/11/28 11:27:31;;;;;;;6.22;3.78;;;;;;;12.55;64.08;96784.44;4851113;29;20298;-76
2022/11/28 11:29:57;;;;;;;6.68;4.18;;;;;;;12.60;63.85;96780.28;4882856;28;20638;-75
2022/11/28 11:32:26;;;;;;;7.13;3.75;;;;;;;12.66;63.66;96773.97;4882883;28;20634;-76
2022/11/28 11:34:52;;;;;;;4.97;3.95;;;;;;;12.52;64.40;96776.38;4882825;28;20118;-75
2022/11/28 11:37:30;;;;;;;4.97;3.60;;;;;;;12.71;63.49;96779.97;4867188;29;20389;-76
2022/11/28 11:39:55;;;;;;;5.18;3.40;;;;;;;12.65;64.30;96780.25;4868184;28;20189;-75
2022/11/28 11:42:29;;;;;;;5.85;3.65;;;;;;;12.73;63.96;96775.25;4882877;28;20196;-76
2022/11/28 11:44:55;;;;;;;4.88;3.58;;;;;;;12.60;63.71;96772.44;4882545;28;20176;-76
2022/11/28 11:47:40;;;;;;;8.43;3.55;;;;;;;12.79;63.51;96765.56;4880496;28;20215;-75
2022/11/28 11:50:05;;;;;;;5.47;3.30;;;;;;;12.59;63.91;96766.41;4882433;28;20305;-75
2022/11/28 11:52:31;;;;;;;5.88;3.63;;;;;;;12.45;64.57;96768.81;4868670;28;20887;-76